Time;durP1;ratioP1;P1;durP2;ratioP2;P2;SDS_P1;SDS_P2;PMS_P1;PMS_P2;Temp;Humidity;BMP_temperature;BMP_pressure;BME280_temperature;BME280_humidity;BME280_pressure;Samples;Min_cycle;Max_cycle;Signal;HPM_P1;HPM_P2
2021/05/23 00:01:09;;;;;;;2.57;1.77;;;12.60;99.90;;;;;;5096649;28;20810;-67
2021/05/23 00:03:35;;;;;;;3.10;1.53;;;12.50;99.90;;;;;;5096507;28;20500;-67
2021/05/23 00:06:03;;;;;;;3.07;2.00;;;12.50;99.90;;;;;;5097219;28;20548;-67
2021/05/23 00:08:30;;;;;;;1.70;1.60;;;12.50;99.90;;;;;;5096641;28;20477;-65
2021/05/23 00:11:01;;;;;;;2.03;1.50;;;12.50;99.90;;;;;;5095982;28;20468;-67
2021/05/23 00:13:30;;;;;;;3.20;1.57;;;12.40;99.90;;;;;;5095654;28;20448;-67
2021/05/23 00:15:58;;;;;;;2.30;1.70;;;12.40;99.90;;;;;;5095925;28;20871;-66
2021/05/23 00:18:27;;;;;;;2.10;1.67;;;12.40;99.90;;;;;;5095675;28;20457;-66
2021/05/23 00:20:53;;;;;;;2.77;1.70;;;12.40;99.90;;;;;;5095607;28;20453;-67
2021/05/23 00:23:21;;;;;;;3.77;1.80;;;12.30;99.90;;;;;;5095322;28;20917;-67
2021/05/23 00:25:47;;;;;;;2.13;1.93;;;12.40;99.90;;;;;;5095178;28;20483;-66
2021/05/23 00:28:14;;;;;;;2.30;1.87;;;12.30;99.90;;;;;;5095523;28;20478;-66
2021/05/23 00:30:41;;;;;;;2.30;1.83;;;12.30;99.90;;;;;;5095863;28;20531;-66
2021/05/23 00:33:09;;;;;;;4.33;1.80;;;12.30;99.90;;;;;;5095139;28;20477;-66
2021/05/23 00:35:36;;;;;;;2.20;2.00;;;12.30;99.90;;;;;;5095456;28;20467;-66
2021/05/23 00:38:03;;;;;;;1.80;1.70;;;12.20;99.90;;;;;;5095142;28;20453;-67
2021/05/23 00:40:30;;;;;;;2.67;2.43;;;12.20;99.90;;;;;;5095397;28;20450;-68
2021/05/23 00:42:56;;;;;;;2.40;2.20;;;12.20;99.90;;;;;;5095157;28;20582;-68
2021/05/23 00:45:23;;;;;;;2.30;2.10;;;12.20;99.90;;;;;;5095639;28;20458;-66
2021/05/23 00:47:49;;;;;;;3.10;2.90;;;12.20;99.90;;;;;;5095966;28;20484;-68
2021/05/23 00:50:19;;;;;;;3.30;2.53;;;12.10;99.90;;;;;;5096083;28;20552;-65
2021/05/23 00:52:45;;;;;;;2.57;2.37;;;12.10;99.90;;;;;;5098097;28;20479;-66
2021/05/23 00:55:12;;;;;;;5.47;2.40;;;12.10;99.90;;;;;;5097667;28;20457;-66
2021/05/23 00:57:39;;;;;;;2.80;2.60;;;12.00;99.90;;;;;;5095605;28;20553;-68
2021/05/23 01:00:08;;;;;;;2.40;2.20;;;12.00;99.90;;;;;;5095751;28;20817;-66
2021/05/23 01:02:49;;;;;;;2.43;2.23;;;12.00;99.90;;;;;;5095335;28;20772;-67
2021/05/23 01:05:17;;;;;;;3.20;2.80;;;11.90;99.90;;;;;;5095089;28;20755;-66
2021/05/23 01:07:44;;;;;;;3.43;2.50;;;12.00;99.90;;;;;;5095149;28;20457;-67
2021/05/23 01:10:13;;;;;;;3.03;2.83;;;12.00;99.90;;;;;;5095072;28;20506;-67
2021/05/23 01:13:04;;;;;;;2.63;2.43;;;11.90;99.90;;;;;;5094913;28;20484;-67
2021/05/23 01:15:33;;;;;;;4.90;2.60;;;12.00;99.90;;;;;;5095141;28;20448;-67
2021/05/23 01:18:03;;;;;;;3.50;2.50;;;12.00;99.90;;;;;;5094877;28;20457;-67
2021/05/23 01:20:47;;;;;;;3.40;3.10;;;11.90;99.90;;;;;;5094853;28;20433;-67
2021/05/23 01:23:24;;;;;;;6.40;3.00;;;11.90;99.90;;;;;;5094982;28;20433;-67
2021/05/23 01:25:55;;;;;;;3.00;2.77;;;11.90;99.90;;;;;;5095245;28;20437;-67
2021/05/23 01:28:22;;;;;;;3.23;2.93;;;11.90;99.90;;;;;;5094857;28;20514;-67
2021/05/23 01:30:52;;;;;;;3.50;2.90;;;11.80;99.90;;;;;;5094862;28;20454;-67
2021/05/23 01:33:20;;;;;;;2.93;2.73;;;11.80;99.90;;;;;;5094754;28;20481;-67
2021/05/23 01:35:54;;;;;;;2.80;2.50;;;11.80;99.90;;;;;;5094626;28;20453;-67
2021/05/23 01:38:21;;;;;;;2.97;2.77;;;11.80;99.90;;;;;;5094517;28;20502;-66
2021/05/23 01:40:55;;;;;;;2.83;2.63;;;11.80;99.90;;;;;;5094888;28;20457;-66
2021/05/23 01:43:21;;;;;;;4.90;2.90;;;11.70;99.90;;;;;;5095436;28;20555;-67
2021/05/23 01:45:48;;;;;;;2.73;2.53;;;11.70;99.90;;;;;;5094696;28;20476;-67
2021/05/23 01:48:14;;;;;;;2.93;2.73;;;11.70;99.90;;;;;;5094957;28;20460;-66
2021/05/23 01:50:41;;;;;;;3.40;3.10;;;11.60;99.90;;;;;;5094305;28;20453;-67
2021/05/23 01:53:08;;;;;;;2.97;2.77;;;11.60;99.90;;;;;;5094935;28;20480;-66
2021/05/23 01:55:36;;;;;;;3.40;3.10;;;11.60;99.90;;;;;;5095028;28;20754;-66
2021/05/23 01:58:03;;;;;;;4.13;2.80;;;11.60;99.90;;;;;;5094888;28;20460;-66
2021/05/23 02:00:32;;;;;;;4.33;3.40;;;11.60;99.90;;;;;;5094636;28;20452;-66
2021/05/23 02:02:59;;;;;;;3.03;2.83;;;11.60;99.90;;;;;;5094774;28;20453;-66
2021/05/23 02:05:26;;;;;;;5.27;2.93;;;11.60;99.90;;;;;;5094867;28;20453;-66
2021/05/23 02:07:53;;;;;;;3.50;3.20;;;11.60;99.90;;;;;;5098327;28;20936;-66
2021/05/23 02:10:20;;;;;;;4.63;2.90;;;11.60;99.90;;;;;;5097848;28;20488;-66
2021/05/23 02:12:47;;;;;;;3.57;3.27;;;11.60;99.90;;;;;;5098281;28;20476;-66
2021/05/23 02:15:17;;;;;;;4.23;2.70;;;11.60;99.90;;;;;;5098214;28;20464;-66
2021/05/23 02:17:45;;;;;;;3.40;3.10;;;11.60;99.90;;;;;;5098045;28;20527;-66
2021/05/23 02:20:14;;;;;;;2.93;2.63;;;11.60;99.90;;;;;;5098108;28;20449;-66
2021/05/23 02:22:41;;;;;;;3.10;2.90;;;11.60;99.90;;;;;;5097791;28;20522;-66
2021/05/23 02:25:09;;;;;;;3.50;3.30;;;11.50;99.90;;;;;;5098180;28;20457;-66
2021/05/23 02:27:39;;;;;;;2.83;2.63;;;11.50;99.90;;;;;;5098560;28;20458;-65
2021/05/23 02:30:08;;;;;;;4.60;2.80;;;11.50;99.90;;;;;;5098046;28;20483;-66
2021/05/23 02:32:35;;;;;;;2.90;2.70;;;11.50;99.90;;;;;;5097887;28;20477;-66
2021/05/23 02:35:02;;;;;;;3.63;3.20;;;11.40;99.90;;;;;;5098105;28;20784;-66
2021/05/23 02:37:28;;;;;;;3.43;3.13;;;11.40;99.90;;;;;;5098250;28;20867;-66
2021/05/23 02:39:54;;;;;;;3.07;2.87;;;11.40;99.90;;;;;;5097956;28;20487;-67
2021/05/23 02:42:23;;;;;;;5.33;3.00;;;11.40;99.90;;;;;;5097772;28;20453;-65
2021/05/23 02:44:49;;;;;;;3.57;2.90;;;11.40;99.90;;;;;;5097719;28;20453;-66
2021/05/23 02:47:15;;;;;;;3.10;2.80;;;11.40;99.90;;;;;;5097966;28;20514;-66
2021/05/23 02:49:43;;;;;;;4.27;2.70;;;11.30;99.90;;;;;;5098224;28;20507;-65
2021/05/23 02:52:10;;;;;;;2.70;2.50;;;11.30;99.90;;;;;;5100196;28;20921;-66
2021/05/23 02:54:37;;;;;;;3.10;2.63;;;11.30;99.90;;;;;;5098963;28;20483;-67
2021/05/23 02:57:04;;;;;;;6.13;2.87;;;11.20;99.90;;;;;;5098377;28;20457;-67
2021/05/23 02:59:30;;;;;;;3.10;2.90;;;11.20;99.90;;;;;;5096958;28;20464;-67
2021/05/23 03:01:58;;;;;;;3.90;2.90;;;11.20;99.90;;;;;;5097527;28;20453;-67
2021/05/23 03:04:24;;;;;;;2.63;2.43;;;11.20;99.90;;;;;;5097569;28;20804;-67
2021/05/23 03:06:52;;;;;;;2.90;2.70;;;11.20;99.90;;;;;;5097126;28;20483;-67
2021/05/23 03:09:18;;;;;;;3.37;2.60;;;11.20;99.90;;;;;;5097304;28;20573;-67
2021/05/23 03:11:46;;;;;;;3.63;3.10;;;11.20;99.90;;;;;;5097636;28;20454;-66
2021/05/23 03:14:15;;;;;;;2.80;2.60;;;11.20;99.90;;;;;;5097424;28;20461;-67
2021/05/23 03:16:42;;;;;;;2.83;2.63;;;11.20;99.90;;;;;;5096893;28;20837;-66
2021/05/23 03:19:08;;;;;;;3.13;2.50;;;11.20;99.90;;;;;;5097225;28;20449;-67
2021/05/23 03:21:35;;;;;;;2.70;2.50;;;11.20;99.90;;;;;;5097302;28;20453;-67
2021/05/23 03:24:03;;;;;;;3.07;2.83;;;11.20;99.90;;;;;;5097948;28;20784;-67
2021/05/23 03:26:30;;;;;;;4.13;3.07;;;11.20;99.90;;;;;;5097490;28;20457;-67
2021/05/23 03:28:56;;;;;;;2.93;2.73;;;11.20;99.90;;;;;;5096958;28;20489;-67
2021/05/23 03:31:22;;;;;;;2.63;2.43;;;11.30;99.90;;;;;;5097112;28;20453;-67
2021/05/23 03:33:48;;;;;;;3.70;2.70;;;11.30;99.90;;;;;;5097101;28;20472;-67
2021/05/23 03:36:15;;;;;;;2.43;2.23;;;11.40;99.90;;;;;;5096976;28;20781;-66
2021/05/23 03:38:46;;;;;;;2.47;2.20;;;11.40;99.90;;;;;;5096766;28;20449;-67
2021/05/23 03:41:15;;;;;;;3.23;2.93;;;11.40;99.90;;;;;;5096891;28;20441;-67
2021/05/23 03:43:42;;;;;;;3.77;2.37;;;11.50;99.90;;;;;;5096564;28;20457;-67
2021/05/23 03:46:08;;;;;;;2.77;2.57;;;11.40;99.90;;;;;;5096219;28;20855;-67
2021/05/23 03:48:34;;;;;;;2.87;2.67;;;11.40;99.90;;;;;;5096145;28;20457;-67
2021/05/23 03:51:01;;;;;;;2.90;2.70;;;11.40;99.90;;;;;;5096521;28;20457;-66
2021/05/23 03:53:27;;;;;;;2.87;2.60;;;11.40;99.90;;;;;;5096428;28;20458;-66
2021/05/23 03:55:53;;;;;;;2.37;2.17;;;11.30;99.90;;;;;;5095951;28;20445;-67
2021/05/23 03:58:20;;;;;;;2.53;2.27;;;11.30;99.90;;;;;;5096337;28;20515;-67
2021/05/23 04:00:46;;;;;;;2.47;2.27;;;11.30;99.90;;;;;;5096065;28;20449;-67
2021/05/23 04:03:12;;;;;;;3.07;2.30;;;11.40;99.90;;;;;;5096523;28;20550;-66
2021/05/23 04:05:39;;;;;;;3.30;2.53;;;11.40;99.90;;;;;;5096445;28;20929;-67
2021/05/23 04:08:05;;;;;;;3.00;2.70;;;11.40;99.90;;;;;;5096255;28;20473;-67
2021/05/23 04:10:35;;;;;;;2.53;2.33;;;11.40;99.90;;;;;;5096591;28;20554;-67
2021/05/23 04:13:03;;;;;;;2.90;2.47;;;11.40;99.90;;;;;;5097247;28;20457;-67
2021/05/23 04:15:32;;;;;;;2.17;2.07;;;11.40;99.90;;;;;;5097996;28;20453;-66
2021/05/23 04:17:59;;;;;;;2.53;2.20;;;11.40;99.90;;;;;;5095996;28;20545;-66
2021/05/23 04:20:27;;;;;;;2.30;2.10;;;11.40;99.90;;;;;;5096628;28;20441;-67
2021/05/23 04:22:54;;;;;;;2.40;2.20;;;11.40;99.90;;;;;;5095835;28;20461;-66
2021/05/23 04:25:21;;;;;;;2.63;2.43;;;11.40;99.90;;;;;;5095667;28;20518;-66
2021/05/23 04:27:49;;;;;;;2.50;2.30;;;11.40;99.90;;;;;;5095692;28;20457;-67
2021/05/23 04:30:21;;;;;;;2.63;2.40;;;11.40;99.90;;;;;;5095039;28;20481;-67
2021/05/23 04:32:49;;;;;;;2.50;2.23;;;11.50;99.90;;;;;;5095305;28;20481;-66
2021/05/23 04:35:16;;;;;;;4.00;2.00;;;11.60;99.90;;;;;;5095885;28;20482;-66
2021/05/23 04:37:43;;;;;;;3.90;2.60;;;11.70;99.90;;;;;;5095791;28;20481;-66
2021/05/23 04:40:10;;;;;;;2.40;2.10;;;11.80;99.90;;;;;;5095882;28;20449;-66
2021/05/23 04:42:38;;;;;;;2.43;2.23;;;11.90;99.90;;;;;;5095491;28;20449;-68
2021/05/23 04:45:06;;;;;;;3.83;2.13;;;11.90;99.90;;;;;;5095410;28;20846;-67
2021/05/23 04:47:35;;;;;;;5.43;2.70;;;11.90;99.90;;;;;;5095252;28;20489;-67
2021/05/23 04:50:03;;;;;;;3.30;2.10;;;12.00;99.90;;;;;;5095060;28;20481;-67
2021/05/23 04:52:29;;;;;;;2.20;1.83;;;12.00;99.90;;;;;;5094880;28;20464;-67
2021/05/23 04:54:57;;;;;;;2.90;2.30;;;12.10;99.90;;;;;;5095343;28;20465;-67
2021/05/23 04:57:24;;;;;;;2.00;1.80;;;12.20;99.90;;;;;;5095138;28;20453;-66
2021/05/23 04:59:51;;;;;;;3.20;2.23;;;12.20;99.90;;;;;;5095739;28;20449;-66
2021/05/23 05:02:18;;;;;;;2.60;2.10;;;12.20;99.90;;;;;;5095111;28;20458;-66
2021/05/23 05:04:44;;;;;;;2.40;2.20;;;12.30;99.90;;;;;;5095059;28;20835;-66
2021/05/23 05:07:11;;;;;;;3.10;2.10;;;12.30;99.90;;;;;;5094919;28;20453;-66
2021/05/23 05:09:37;;;;;;;2.90;2.37;;;12.20;99.90;;;;;;5095027;28;20477;-66
2021/05/23 05:12:05;;;;;;;2.60;1.90;;;12.30;99.90;;;;;;5095433;28;20781;-66
2021/05/23 05:14:31;;;;;;;2.40;2.20;;;12.20;99.90;;;;;;5095203;28;20453;-67
2021/05/23 05:16:57;;;;;;;2.40;2.13;;;12.20;99.90;;;;;;5095375;28;20461;-67
2021/05/23 05:19:23;;;;;;;3.63;1.87;;;12.20;99.90;;;;;;5095476;28;20457;-67
2021/05/23 05:21:49;;;;;;;2.17;1.97;;;12.20;99.90;;;;;;5095180;28;20453;-67
2021/05/23 05:24:17;;;;;;;2.30;1.80;;;12.20;99.90;;;;;;5095152;28;20457;-71
2021/05/23 05:26:43;;;;;;;1.80;1.70;;;12.20;99.90;;;;;;5095463;28;20457;-67
2021/05/23 05:29:11;;;;;;;2.40;1.90;;;12.20;99.90;;;;;;5096335;28;20474;-69
2021/05/23 05:31:37;;;;;;;1.97;1.77;;;12.20;99.90;;;;;;5099589;28;20595;-68
2021/05/23 05:34:06;;;;;;;3.00;1.60;;;12.20;99.90;;;;;;5101401;28;20434;-68
2021/05/23 05:36:35;;;;;;;1.90;1.60;;;12.20;99.90;;;;;;5100604;28;20462;-68
2021/05/23 05:39:01;;;;;;;2.70;2.00;;;12.20;99.90;;;;;;5100754;28;20453;-69
2021/05/23 05:41:29;;;;;;;2.90;1.83;;;12.30;99.90;;;;;;5105578;28;20457;-68
2021/05/23 05:43:55;;;;;;;2.27;1.70;;;12.30;99.90;;;;;;5105219;28;20457;-70
2021/05/23 05:46:21;;;;;;;1.87;1.77;;;12.40;99.90;;;;;;5105556;28;20461;-68
2021/05/23 05:48:47;;;;;;;1.70;1.60;;;12.40;99.90;;;;;;5104994;28;20452;-68
2021/05/23 05:51:14;;;;;;;2.47;1.73;;;12.40;99.90;;;;;;5104764;28;20474;-68
2021/05/23 05:53:40;;;;;;;1.93;1.50;;;12.40;99.90;;;;;;5104342;28;20460;-68
2021/05/23 05:56:06;;;;;;;2.03;1.63;;;12.40;99.90;;;;;;5103975;28;20468;-69
2021/05/23 05:58:33;;;;;;;1.60;1.50;;;12.40;99.90;;;;;;5104667;28;20453;-69
2021/05/23 06:01:00;;;;;;;2.43;1.60;;;12.30;99.90;;;;;;5105281;28;20449;-68
2021/05/23 06:03:26;;;;;;;2.43;1.87;;;12.30;99.90;;;;;;5104607;28;20822;-68
2021/05/23 06:05:52;;;;;;;3.57;1.70;;;12.30;99.90;;;;;;5105851;28;20437;-68
2021/05/23 06:08:19;;;;;;;2.53;1.73;;;12.30;99.90;;;;;;5104177;28;20453;-68
2021/05/23 06:10:45;;;;;;;1.93;1.73;;;12.30;99.90;;;;;;5105507;28;20485;-68
2021/05/23 06:13:11;;;;;;;2.17;1.90;;;12.40;99.90;;;;;;5105552;28;20456;-68
2021/05/23 06:15:38;;;;;;;2.20;1.60;;;12.40;99.90;;;;;;5104303;28;20449;-68
2021/05/23 06:18:05;;;;;;;1.83;1.50;;;12.40;99.90;;;;;;5104303;28;20464;-69
2021/05/23 06:20:31;;;;;;;2.40;1.80;;;12.40;99.90;;;;;;5105064;28;20464;-67
2021/05/23 06:22:57;;;;;;;2.73;1.67;;;12.40;99.90;;;;;;5106364;28;20460;-68
2021/05/23 06:25:24;;;;;;;2.10;1.90;;;12.50;99.90;;;;;;5103334;28;20454;-68
2021/05/23 06:27:51;;;;;;;2.77;1.47;;;12.40;99.90;;;;;;5104260;28;20457;-69
2021/05/23 06:30:18;;;;;;;1.73;1.60;;;12.30;99.90;;;;;;5103410;28;20473;-68
2021/05/23 06:32:45;;;;;;;4.30;1.70;;;12.30;99.90;;;;;;5103888;28;20613;-68
2021/05/23 06:35:12;;;;;;;1.60;1.43;;;12.20;99.90;;;;;;5100678;28;20444;-67
2021/05/23 06:37:38;;;;;;;2.37;1.80;;;12.00;99.90;;;;;;5100690;28;20492;-68
2021/05/23 06:40:06;;;;;;;1.90;1.47;;;11.90;99.90;;;;;;5100306;28;20457;-68
2021/05/23 06:42:33;;;;;;;4.40;1.53;;;11.70;99.90;;;;;;5101098;28;20463;-68
2021/05/23 06:44:59;;;;;;;1.60;1.50;;;11.60;99.90;;;;;;5100927;28;20453;-68
2021/05/23 06:47:25;;;;;;;2.37;1.70;;;11.50;99.90;;;;;;5099979;28;20925;-68
2021/05/23 06:49:52;;;;;;;1.40;1.30;;;11.50;99.90;;;;;;5100703;28;20499;-68
2021/05/23 06:52:19;;;;;;;4.30;1.83;;;11.50;99.90;;;;;;5100962;28;20553;-69
2021/05/23 06:54:45;;;;;;;2.10;1.67;;;11.50;99.90;;;;;;5103654;28;20453;-66
2021/05/23 06:57:11;;;;;;;1.70;1.60;;;11.40;99.90;;;;;;5101715;28;20454;-69
2021/05/23 06:59:43;;;;;;;1.90;1.50;;;11.30;99.90;;;;;;5100806;28;20464;-69
2021/05/23 07:02:09;;;;;;;2.37;1.80;;;11.20;99.90;;;;;;5101310;28;20514;-68
2021/05/23 07:04:35;;;;;;;2.33;1.70;;;11.20;99.90;;;;;;5100537;28;20833;-69
2021/05/23 07:07:03;;;;;;;2.80;1.60;;;11.20;99.90;;;;;;5100399;28;20522;-68
2021/05/23 07:09:29;;;;;;;1.40;1.30;;;11.30;99.90;;;;;;5099757;28;20817;-69
2021/05/23 07:11:55;;;;;;;2.73;1.67;;;11.40;99.90;;;;;;5099101;28;20469;-69
2021/05/23 07:14:21;;;;;;;3.20;1.67;;;11.50;99.90;;;;;;5100850;28;20540;-69
2021/05/23 07:16:48;;;;;;;2.03;1.70;;;11.60;99.90;;;;;;5100066;28;20461;-68
2021/05/23 07:19:14;;;;;;;1.70;1.60;;;11.80;99.90;;;;;;5101185;28;20492;-67
2021/05/23 07:21:43;;;;;;;1.90;1.80;;;11.90;99.90;;;;;;5102063;28;20561;-69
2021/05/23 07:24:12;;;;;;;2.67;1.80;;;12.00;99.90;;;;;;5101318;28;20536;-69
2021/05/23 07:26:39;;;;;;;1.50;1.40;;;12.10;99.90;;;;;;5100701;28;20461;-69
2021/05/23 07:29:06;;;;;;;2.10;1.33;;;12.20;99.90;;;;;;5101125;28;20454;-68
2021/05/23 07:31:33;;;;;;;2.40;1.70;;;12.40;99.90;;;;;;5101826;28;20553;-69
2021/05/23 07:33:59;;;;;;;2.37;1.60;;;12.50;99.90;;;;;;5101900;28;20442;-68
2021/05/23 07:36:26;;;;;;;3.53;1.83;;;12.70;99.90;;;;;;5101397;28;20449;-69
2021/05/23 07:38:52;;;;;;;4.23;1.50;;;12.80;99.90;;;;;;5100784;28;20825;-68
2021/05/23 07:41:19;;;;;;;2.87;1.57;;;12.90;99.90;;;;;;5100469;28;20889;-70
2021/05/23 07:43:45;;;;;;;2.90;1.70;;;13.00;99.90;;;;;;5102306;28;20514;-68
2021/05/23 07:46:15;;;;;;;1.90;1.27;;;13.00;99.90;;;;;;5101704;28;20472;-68
2021/05/23 07:48:41;;;;;;;3.13;1.40;;;13.10;99.90;;;;;;5101074;28;20454;-69
2021/05/23 07:51:10;;;;;;;2.10;1.60;;;13.20;99.90;;;;;;5099975;28;20477;-68
2021/05/23 07:53:37;;;;;;;4.30;1.80;;;13.30;99.90;;;;;;5100469;28;20453;-67
2021/05/23 07:56:03;;;;;;;2.30;2.03;;;13.30;99.90;;;;;;5099676;28;20468;-69
2021/05/23 07:58:33;;;;;;;1.40;1.30;;;13.30;99.90;;;;;;5100763;28;20457;-68
2021/05/23 08:01:00;;;;;;;2.17;1.43;;;13.50;99.90;;;;;;5100667;28;20463;-69
2021/05/23 08:03:29;;;;;;;2.13;1.60;;;13.70;99.90;;;;;;5101423;28;20456;-68
2021/05/23 08:05:55;;;;;;;2.87;1.20;;;13.70;99.90;;;;;;5101693;28;20464;-68
2021/05/23 08:08:22;;;;;;;2.00;1.50;;;13.80;99.90;;;;;;5101929;28;20453;-69
2021/05/23 08:10:48;;;;;;;2.10;1.33;;;13.90;99.90;;;;;;5102370;28;20544;-68
2021/05/23 08:13:15;;;;;;;2.10;1.40;;;13.80;99.90;;;;;;5100102;28;20870;-69
2021/05/23 08:15:43;;;;;;;3.07;1.50;;;13.80;99.90;;;;;;5099961;28;20450;-70
2021/05/23 08:18:10;;;;;;;4.47;1.47;;;13.80;99.90;;;;;;5098029;28;20849;-66
2021/05/23 08:20:37;;;;;;;2.60;1.10;;;13.70;99.90;;;;;;5096072;28;20552;-67
2021/05/23 08:23:03;;;;;;;2.23;1.33;;;13.70;99.90;;;;;;5095853;28;20479;-67
2021/05/23 08:25:30;;;;;;;3.43;1.43;;;13.80;99.90;;;;;;5095673;28;20851;-67
2021/05/23 08:27:56;;;;;;;2.83;1.80;;;13.80;99.90;;;;;;5095912;28;20469;-68
2021/05/23 08:30:23;;;;;;;7.93;1.97;;;13.80;99.90;;;;;;5095675;28;20488;-67
2021/05/23 08:32:50;;;;;;;2.03;1.70;;;13.70;99.90;;;;;;5095659;28;20481;-67
2021/05/23 08:35:17;;;;;;;1.60;1.30;;;13.80;99.90;;;;;;5095779;28;20453;-67
2021/05/23 08:37:43;;;;;;;6.30;1.90;;;13.90;99.90;;;;;;5095757;28;20782;-67
2021/05/23 08:40:10;;;;;;;3.30;1.73;;;14.00;99.90;;;;;;5096401;28;20449;-66
2021/05/23 08:42:38;;;;;;;1.80;1.70;;;14.30;99.90;;;;;;5096660;28;20506;-67
2021/05/23 08:45:06;;;;;;;2.17;1.47;;;14.40;99.90;;;;;;5096386;28;20758;-66
2021/05/23 08:47:39;;;;;;;2.23;1.70;;;14.40;99.90;;;;;;5096117;28;20848;-68
2021/05/23 08:50:07;;;;;;;2.83;1.70;;;14.40;99.90;;;;;;5096735;28;20944;-67
2021/05/23 08:52:33;;;;;;;2.07;1.60;;;14.30;99.90;;;;;;5095257;28;20465;-67
2021/05/23 08:55:00;;;;;;;2.53;2.17;;;14.20;99.90;;;;;;5095386;28;20932;-67
2021/05/23 08:57:26;;;;;;;1.47;1.37;;;14.10;99.90;;;;;;5094863;28;20556;-68
2021/05/23 08:59:52;;;;;;;1.63;1.53;;;14.20;99.90;;;;;;5094848;28;20450;-67
2021/05/23 09:02:19;;;;;;;1.77;1.47;;;14.30;99.90;;;;;;5094781;28;20461;-68
2021/05/23 09:04:49;;;;;;;1.47;1.37;;;14.30;99.90;;;;;;5095740;28;20453;-67
2021/05/23 09:07:16;;;;;;;1.10;0.93;;;14.40;99.90;;;;;;5095451;28;20464;-67
2021/05/23 09:09:43;;;;;;;1.40;1.30;;;14.40;99.90;;;;;;5094763;28;20801;-67
2021/05/23 09:12:11;;;;;;;2.53;1.50;;;14.30;99.90;;;;;;5094954;28;20523;-67
2021/05/23 09:14:39;;;;;;;1.90;1.60;;;14.40;99.90;;;;;;5094891;28;20460;-67
2021/05/23 09:17:06;;;;;;;2.07;1.20;;;14.50;99.90;;;;;;5094844;28;20560;-67
2021/05/23 09:19:42;;;;;;;1.50;1.20;;;14.50;99.90;;;;;;5094909;28;20909;-67
2021/05/23 09:22:09;;;;;;;2.33;1.33;;;14.60;99.90;;;;;;5094837;28;20874;-67
2021/05/23 09:24:47;;;;;;;1.30;1.10;;;14.60;99.90;;;;;;5094955;28;20522;-67
2021/05/23 09:27:13;;;;;;;1.60;1.40;;;14.70;99.90;;;;;;5094910;28;20590;-66
2021/05/23 09:29:40;;;;;;;1.20;1.10;;;14.80;99.90;;;;;;5094859;28;20497;-66
2021/05/23 09:32:15;;;;;;;3.20;1.23;;;14.90;99.90;;;;;;5094433;28;20481;-67
2021/05/23 09:34:41;;;;;;;1.77;1.17;;;15.00;99.90;;;;;;5094997;28;20461;-67
2021/05/23 09:37:12;;;;;;;1.70;1.53;;;14.90;99.90;;;;;;5094573;28;20480;-67
2021/05/23 09:39:40;;;;;;;1.57;1.47;;;14.80;99.90;;;;;;5094815;28;20438;-67
2021/05/23 09:42:11;;;;;;;1.53;1.20;;;14.70;99.90;;;;;;5094589;28;20456;-67
2021/05/23 09:44:37;;;;;;;2.67;1.50;;;14.60;99.90;;;;;;5094620;28;20433;-67
2021/05/23 09:47:09;;;;;;;2.50;1.40;;;14.60;99.90;;;;;;5094741;28;20453;-67
2021/05/23 09:49:40;;;;;;;1.40;1.30;;;14.60;99.90;;;;;;5094675;28;20511;-66
2021/05/23 09:52:08;;;;;;;1.70;1.40;;;14.60;99.90;;;;;;5094614;28;20449;-67
2021/05/23 09:54:44;;;;;;;1.20;1.10;;;14.50;99.90;;;;;;5095111;28;20731;-67
2021/05/23 09:57:13;;;;;;;2.33;1.20;;;14.50;99.90;;;;;;5094929;28;20445;-67
2021/05/23 09:59:40;;;;;;;2.00;0.90;;;14.60;99.90;;;;;;5094518;28;20978;-67
2021/05/23 10:02:07;;;;;;;1.37;1.03;;;14.70;58.20;;;;;;5094325;28;20547;-67
2021/05/23 10:04:35;;;;;;;1.40;0.93;;;14.80;99.90;;;;;;5094490;28;20464;-66
2021/05/23 10:07:02;;;;;;;2.03;0.90;;;15.00;98.00;;;;;;5094695;28;20480;-67
2021/05/23 10:09:29;;;;;;;1.20;0.90;;;15.20;1.00;;;;;;5094858;28;20581;-67
2021/05/23 10:11:56;;;;;;;1.00;0.70;;;15.40;1.00;;;;;;5097169;28;20449;-66
2021/05/23 10:14:23;;;;;;;1.17;0.70;;;15.60;1.00;;;;;;5101753;28;20522;-68
2021/05/23 10:16:51;;;;;;;1.20;0.80;;;15.60;1.00;;;;;;5098122;28;20457;-68
2021/05/23 10:19:19;;;;;;;1.13;0.80;;;15.90;1.00;;;;;;5097328;28;20464;-68
2021/05/23 10:21:47;;;;;;;1.00;0.73;;;16.00;99.90;;;;;;5097103;28;20453;-67
2021/05/23 10:24:17;;;;;;;1.70;0.80;;;16.00;99.90;;;;;;5097748;28;20548;-67
2021/05/23 10:26:45;;;;;;;1.00;0.70;;;16.00;99.90;;;;;;5097729;28;20454;-67
2021/05/23 10:29:11;;;;;;;1.10;0.80;;;16.00;99.90;;;;;;5099713;28;20495;-69
2021/05/23 10:31:38;;;;;;;1.03;0.80;;;16.20;99.90;;;;;;5100134;28;20567;-68
2021/05/23 10:34:05;;;;;;;1.27;0.80;;;16.50;99.90;;;;;;5099603;28;20441;-70
2021/05/23 10:36:33;;;;;;;1.10;0.90;;;16.60;99.90;;;;;;5099872;28;20893;-70
2021/05/23 10:39:02;;;;;;;1.10;0.90;;;16.60;99.90;;;;;;5099830;28;21007;-67
2021/05/23 10:41:28;;;;;;;1.37;1.07;;;16.50;99.90;;;;;;5099699;28;20469;-69
2021/05/23 10:43:58;;;;;;;1.20;1.00;;;16.40;99.90;;;;;;5099562;28;20909;-68
2021/05/23 10:46:24;;;;;;;2.53;1.13;;;16.60;99.90;;;;;;5099442;28;20453;-68
2021/05/23 10:48:56;;;;;;;1.40;1.13;;;16.70;99.90;;;;;;5102670;28;20461;-68
2021/05/23 10:51:23;;;;;;;1.60;0.80;;;16.90;99.90;;;;;;5103694;28;20493;-68
2021/05/23 10:53:53;;;;;;;1.20;1.10;;;16.80;99.90;;;;;;5102482;28;20527;-67
2021/05/23 10:56:22;;;;;;;2.03;1.10;;;16.80;99.90;;;;;;5100086;28;20794;-67
2021/05/23 10:58:57;;;;;;;1.50;1.10;;;16.90;99.90;;;;;;5098944;28;20470;-66
2021/05/23 11:01:41;;;;;;;1.40;1.30;;;17.00;99.90;;;;;;5099213;28;20535;-68
2021/05/23 11:04:14;;;;;;;1.17;1.07;;;17.20;99.90;;;;;;5099822;28;20468;-68
2021/05/23 11:06:42;;;;;;;1.40;1.10;;;17.10;99.90;;;;;;5100446;28;20444;-68
2021/05/23 11:09:11;;;;;;;2.27;1.00;;;16.90;99.90;;;;;;5098917;28;20798;-67
2021/05/23 11:11:38;;;;;;;2.97;1.23;;;16.60;99.90;;;;;;5097590;28;20488;-68
2021/05/23 11:14:15;;;;;;;3.53;1.10;;;16.50;99.90;;;;;;5098298;28;20449;-67
2021/05/23 11:16:50;;;;;;;2.10;1.50;;;16.30;99.90;;;;;;5097874;28;20453;-67
2021/05/23 11:19:18;;;;;;;5.20;1.50;;;16.10;99.90;;;;;;5098005;28;20483;-67
2021/05/23 11:21:46;;;;;;;4.70;1.60;;;16.10;99.90;;;;;;5097578;28;20457;-67
2021/05/23 11:24:13;;;;;;;1.97;1.30;;;16.10;99.90;;;;;;5097738;28;20495;-67
2021/05/23 11:26:40;;;;;;;1.67;1.57;;;16.40;99.90;;;;;;5098078;28;20511;-68
2021/05/23 11:29:07;;;;;;;1.50;1.40;;;16.60;99.90;;;;;;5098496;28;20453;-68
2021/05/23 11:31:35;;;;;;;1.40;1.30;;;16.90;99.90;;;;;;5097377;28;20485;-68
2021/05/23 11:34:04;;;;;;;1.63;1.37;;;17.10;99.90;;;;;;5098826;28;20452;-67
2021/05/23 11:36:32;;;;;;;4.27;3.03;;;17.50;99.90;;;;;;5100777;28;20575;-68
2021/05/23 11:39:00;;;;;;;109.60;73.43;;;17.90;99.90;;;;;;5097683;28;20604;-68
2021/05/23 11:41:32;;;;;;;14.13;10.30;;;18.20;99.90;;;;;;5096790;28;20450;-68
2021/05/23 11:43:59;;;;;;;2.77;2.57;;;18.40;99.90;;;;;;5097477;28;20936;-68
2021/05/23 11:46:27;;;;;;;15.80;14.07;;;18.80;93.90;;;;;;5098754;28;20453;-66
2021/05/23 11:48:54;;;;;;;3.70;3.40;;;19.30;50.80;;;;;;5099196;28;20778;-67
2021/05/23 11:51:24;;;;;;;7.43;6.40;;;19.20;9.00;;;;;;5098139;28;20539;-66
2021/05/23 11:53:53;;;;;;;9.67;6.73;;;19.50;10.50;;;;;;5098702;28;20453;-67
2021/05/23 11:56:21;;;;;;;4.27;2.00;;;20.10;1.00;;;;;;5101261;28;20457;-67
2021/05/23 11:58:49;;;;;;;1.70;1.23;;;20.40;1.00;;;;;;5101353;28;20464;-67
2021/05/23 12:01:18;;;;;;;1.37;1.17;;;20.30;1.00;;;;;;5101633;28;20521;-68
2021/05/23 12:03:58;;;;;;;5.80;2.17;;;20.60;1.00;;;;;;5104086;28;20458;-67
2021/05/23 12:06:25;;;;;;;1.73;1.20;;;20.50;1.00;;;;;;5104614;28;20441;-67
2021/05/23 12:08:53;;;;;;;1.10;0.80;;;20.30;1.00;;;;;;5102789;28;20483;-67
2021/05/23 12:11:21;;;;;;;1.10;0.90;;;20.40;1.00;;;;;;5105851;28;20477;-67
2021/05/23 12:13:49;;;;;;;1.47;1.20;;;20.20;1.00;;;;;;5104173;28;20501;-67
2021/05/23 12:16:16;;;;;;;2.23;1.10;;;19.50;1.00;;;;;;5104565;28;20480;-67
2021/05/23 12:18:44;;;;;;;1.00;0.90;;;19.10;1.00;;;;;;5105659;28;20453;-67
2021/05/23 12:21:12;;;;;;;1.20;1.00;;;19.00;1.00;;;;;;5107294;28;20533;-67
2021/05/23 12:23:39;;;;;;;1.27;1.00;;;19.10;1.00;;;;;;5105559;28;20510;-68
2021/05/23 12:26:08;;;;;;;1.20;0.93;;;19.30;1.00;;;;;;5105030;28;20483;-67
2021/05/23 12:28:39;;;;;;;1.30;0.90;;;19.50;1.00;;;;;;5104822;28;20446;-67
2021/05/23 12:31:06;;;;;;;1.77;1.07;;;20.00;1.00;;;;;;5104577;28;20582;-67
2021/05/23 12:33:34;;;;;;;1.33;0.97;;;19.70;1.00;;;;;;5104514;28;20481;-67
2021/05/23 12:36:09;;;;;;;1.00;0.83;;;19.60;1.00;;;;;;5103152;28;20609;-67
2021/05/23 12:38:37;;;;;;;1.70;1.00;;;19.60;1.00;;;;;;5105167;28;20486;-67
2021/05/23 12:41:04;;;;;;;1.00;0.83;;;19.80;1.00;;;;;;5106162;28;20483;-67
2021/05/23 12:43:33;;;;;;;1.10;0.83;;;19.80;1.00;;;;;;5104540;28;20772;-67
2021/05/23 12:46:02;;;;;;;1.03;0.80;;;19.50;1.00;;;;;;5105931;28;20449;-68
2021/05/23 12:48:33;;;;;;;1.10;0.70;;;19.60;1.00;;;;;;5105166;28;20571;-68
2021/05/23 12:51:01;;;;;;;1.47;0.70;;;19.80;1.00;;;;;;5103588;28;20526;-68